Time,TemperatureF,DewpointF,PressureIn,WindDirection,WindDirectionDegrees,WindSpeedMPH,WindSpeedGustMPH,Humidity,HourlyPrecipIn,Conditions,Clouds,dailyrainin,SoftwareType,DateUTC
2013-08-05 00:02:00,63.0,39.0,-100.00,East,89,2.0,2.0,41,0.00,,,0.00,,2013-08-05 06:02:00,
2013-08-05 00:12:00,63.0,39.0,-100.00,East,89,2.0,2.0,41,0.00,,,0.00,,2013-08-05 06:12:00,
2013-08-05 00:22:00,63.0,39.0,-100.00,East,89,2.0,2.0,41,0.00,,,0.00,,2013-08-05 06:22:00,
2013-08-05 00:32:00,62.0,37.0,-100.00,NE,45,1.0,2.0,39,0.00,,,0.00,,2013-08-05 06:32:00,
2013-08-05 00:43:00,62.0,37.0,-100.00,NE,45,1.0,2.0,39,0.00,,,0.00,,2013-08-05 06:43:00,
2013-08-05 00:52:00,62.0,37.0,-100.00,NE,45,1.0,2.0,39,0.00,,,0.00,,2013-08-05 06:52:00,
2013-08-05 02:02:00,54.0,39.0,-100.00,NW,309,2.0,3.0,56,0.00,,,0.00,,2013-08-05 08:02:00,
2013-08-05 02:12:00,54.0,39.0,-100.00,NW,309,2.0,3.0,56,0.00,,,0.00,,2013-08-05 08:12:00,
2013-08-05 02:22:00,54.0,39.0,-100.00,NW,309,2.0,3.0,56,0.00,,,0.00,,2013-08-05 08:22:00,
2013-08-05 03:48:00,55.0,38.0,-100.00,NE,45,6.0,7.0,53,0.00,,,0.00,,2013-08-05 09:48:00,
2013-08-05 03:53:00,55.0,38.0,-100.00,NE,45,6.0,7.0,53,0.00,,,0.00,,2013-08-05 09:53:00,
2013-08-05 04:03:00,54.0,25.0,-100.00,NNW,342,3.0,4.0,32,0.00,,,0.00,,2013-08-05 10:03:00,
2013-08-05 04:13:00,54.0,25.0,-100.00,NNW,342,3.0,4.0,32,0.00,,,0.00,,2013-08-05 10:13:00,
2013-08-05 04:30:00,50.0,36.0,-100.00,NNE,28,3.0,4.0,60,0.00,,,0.00,,2013-08-05 10:30:00,
2013-08-05 04:32:00,50.0,34.0,-100.00,NNE,25,4.0,5.0,54,0.00,,,0.00,,2013-08-05 10:32:00,
2013-08-05 04:49:00,50.0,34.0,-100.00,NNE,25,4.0,5.0,54,0.00,,,0.00,,2013-08-05 10:49:00,
2013-08-05 05:00:00,51.0,37.0,-100.00,North,352,5.0,6.0,58,0.00,,,0.00,,2013-08-05 11:00:00,
2013-08-05 05:02:00,50.0,36.0,-100.00,NNE,28,3.0,4.0,60,0.00,,,0.00,,2013-08-05 11:02:00,
2013-08-05 05:14:00,50.0,36.0,-100.00,NNE,28,3.0,4.0,60,0.00,,,0.00,,2013-08-05 11:14:00,
2013-08-05 05:24:00,50.0,36.0,-100.00,NNE,28,3.0,4.0,60,0.00,,,0.00,,2013-08-05 11:24:00,
2013-08-05 05:52:00,51.0,37.0,-100.00,North,352,5.0,6.0,58,0.00,,,0.00,,2013-08-05 11:52:00,
2013-08-05 05:58:00,51.0,37.0,-100.00,North,352,5.0,6.0,58,0.00,,,0.00,,2013-08-05 11:58:00,
2013-08-05 06:33:00,47.0,32.0,-100.00,NW,318,5.0,5.0,55,0.00,,,0.00,,2013-08-05 12:33:00,
2013-08-05 06:45:00,47.0,31.0,-100.00,North,6,2.0,3.0,51,0.00,,,0.00,,2013-08-05 12:45:00,
2013-08-05 07:02:00,47.0,31.0,-100.00,North,6,2.0,3.0,51,0.00,,,0.00,,2013-08-05 13:02:00,
2013-08-05 07:13:00,47.0,31.0,-100.00,North,6,2.0,3.0,51,0.00,,,0.00,,2013-08-05 13:13:00,
2013-08-05 07:23:00,50.0,33.0,-100.00,NE,35,3.0,4.0,52,0.00,,,0.00,,2013-08-05 13:23:00,
2013-08-05 07:34:00,50.0,33.0,-100.00,NE,35,3.0,4.0,52,0.00,,,0.00,,2013-08-05 13:34:00,
2013-08-05 07:42:00,49.0,33.0,-100.00,NNW,343,8.0,8.0,54,0.00,,,0.00,,2013-08-05 13:42:00,
2013-08-05 07:54:00,49.0,33.0,-100.00,NNW,343,8.0,8.0,54,0.00,,,0.00,,2013-08-05 13:54:00,
2013-08-05 08:04:00,49.0,33.0,-100.00,NNW,343,8.0,8.0,54,0.00,,,0.00,,2013-08-05 14:04:00,
2013-08-05 08:14:00,49.0,33.0,-100.00,NNW,343,8.0,8.0,54,0.00,,,0.00,,2013-08-05 14:14:00,
2013-08-05 08:24:00,56.0,39.0,-100.00,North,3,4.0,5.0,52,0.00,,,0.00,,2013-08-05 14:24:00,
2013-08-05 08:34:00,56.0,39.0,-100.00,North,3,4.0,5.0,52,0.00,,,0.00,,2013-08-05 14:34:00,
2013-08-05 08:54:00,61.0,39.0,-100.00,North,349,6.0,8.0,43,0.00,,,0.00,,2013-08-05 14:54:00,
2013-08-05 09:04:00,61.0,39.0,-100.00,North,349,6.0,8.0,43,0.00,,,0.00,,2013-08-05 15:04:00,
2013-08-05 09:13:00,61.0,39.0,-100.00,North,349,6.0,8.0,43,0.00,,,0.00,,2013-08-05 15:13:00,
2013-08-05 09:24:00,67.0,34.0,-100.00,NE,34,7.0,9.0,29,0.00,,,0.00,,2013-08-05 15:24:00,
2013-08-05 09:33:00,67.0,34.0,-100.00,NE,34,7.0,9.0,29,0.00,,,0.00,,2013-08-05 15:33:00,
2013-08-05 09:58:00,70.0,36.0,-100.00,NNE,18,4.0,6.0,29,0.00,,,0.00,,2013-08-05 15:58:00,
2013-08-05 10:04:00,70.0,36.0,-100.00,NNE,18,4.0,6.0,29,0.00,,,0.00,,2013-08-05 16:04:00,
2013-08-05 10:23:00,73.0,33.0,-100.00,North,359,5.0,6.0,23,0.00,,,0.00,,2013-08-05 16:23:00,
2013-08-05 10:33:00,73.0,33.0,-100.00,North,359,5.0,6.0,23,0.00,,,0.00,,2013-08-05 16:33:00,
2013-08-05 11:03:00,76.0,30.0,-100.00,NNE,32,4.0,5.0,18,0.00,,,0.00,,2013-08-05 17:03:00,
2013-08-05 11:13:00,76.0,30.0,-100.00,NNE,32,4.0,5.0,18,0.00,,,0.00,,2013-08-05 17:13:00,
2013-08-05 11:22:00,78.0,32.0,-100.00,ESE,109,3.0,5.0,19,0.00,,,0.00,,2013-08-05 17:22:00,
2013-08-05 11:33:00,78.0,32.0,-100.00,ESE,109,3.0,5.0,19,0.00,,,0.00,,2013-08-05 17:33:00,
2013-08-05 11:44:00,78.0,32.0,-100.00,ESE,109,3.0,5.0,19,0.00,,,0.00,,2013-08-05 17:44:00,
2013-08-05 12:05:00,83.0,31.0,-100.00,SSE,164,4.0,8.0,15,0.00,,,0.00,,2013-08-05 18:05:00,
2013-08-05 12:13:00,83.0,31.0,-100.00,SSE,164,4.0,8.0,15,0.00,,,0.00,,2013-08-05 18:13:00,
2013-08-05 12:23:00,83.0,31.0,-100.00,SSE,164,4.0,8.0,15,0.00,,,0.00,,2013-08-05 18:23:00,
2013-08-05 12:45:00,83.0,38.0,-100.00,SSE,158,3.0,6.0,20,0.00,,,0.00,,2013-08-05 18:45:00,
2013-08-05 12:54:00,83.0,38.0,-100.00,SSE,158,3.0,6.0,20,0.00,,,0.00,,2013-08-05 18:54:00,
2013-08-05 13:03:00,85.0,34.0,-100.00,South,169,8.0,11.0,16,0.00,,,0.00,,2013-08-05 19:03:00,
2013-08-05 13:14:00,85.0,34.0,-100.00,South,169,8.0,11.0,16,0.00,,,0.00,,2013-08-05 19:14:00,
2013-08-05 13:23:00,85.0,34.0,-100.00,South,169,8.0,11.0,16,0.00,,,0.00,,2013-08-05 19:23:00,
2013-08-05 13:33:00,87.0,37.0,-100.00,South,189,6.0,8.0,17,0.00,,,0.00,,2013-08-05 19:33:00,
2013-08-05 13:53:00,87.0,37.0,-100.00,South,189,6.0,8.0,17,0.00,,,0.00,,2013-08-05 19:53:00,
2013-08-05 14:03:00,87.0,41.0,-100.00,SSW,193,6.0,8.0,19,0.00,,,0.00,,2013-08-05 20:03:00,
2013-08-05 14:15:00,87.0,41.0,-100.00,SSW,193,6.0,8.0,19,0.00,,,0.00,,2013-08-05 20:15:00,
2013-08-05 14:23:00,87.0,41.0,-100.00,SSW,193,6.0,8.0,19,0.00,,,0.00,,2013-08-05 20:23:00,
2013-08-05 14:48:00,88.0,39.0,-100.00,SSE,155,11.0,14.0,17,0.00,,,0.00,,2013-08-05 20:48:00,
2013-08-05 14:58:00,88.0,39.0,-100.00,SSE,155,11.0,14.0,17,0.00,,,0.00,,2013-08-05 20:58:00,
2013-08-05 15:00:00,92.0,33.0,-100.00,South,175,12.0,17.0,13,0.00,,,0.00,,2013-08-05 21:00:00,
2013-08-05 15:23:00,91.0,36.0,-100.00,South,175,11.0,15.0,14,0.00,,,0.00,,2013-08-05 21:23:00,
2013-08-05 15:33:00,92.0,33.0,-100.00,South,175,12.0,17.0,13,0.00,,,0.00,,2013-08-05 21:33:00,
2013-08-05 15:48:00,92.0,33.0,-100.00,South,175,12.0,17.0,13,0.00,,,0.00,,2013-08-05 21:48:00,
2013-08-05 15:53:00,92.0,33.0,-100.00,South,175,12.0,17.0,13,0.00,,,0.00,,2013-08-05 21:53:00,
2013-08-05 16:24:00,92.0,36.0,-100.00,SSW,210,6.0,9.0,14,0.00,,,0.00,,2013-08-05 22:24:00,
2013-08-05 16:34:00,92.0,36.0,-100.00,SSW,210,6.0,9.0,14,0.00,,,0.00,,2013-08-05 22:34:00,
2013-08-05 16:53:00,92.0,29.0,-100.00,WSW,251,15.0,20.0,11,0.00,,,0.00,,2013-08-05 22:53:00,
2013-08-05 17:33:00,92.0,32.0,-100.00,WSW,243,14.0,19.0,12,0.00,,,0.00,,2013-08-05 23:33:00,
2013-08-05 17:44:00,91.0,33.0,-100.00,WSW,246,13.0,19.0,13,0.00,,,0.00,,2013-08-05 23:44:00,
2013-08-05 18:00:00,91.0,33.0,-100.00,WSW,246,13.0,19.0,13,0.00,,,0.00,,2013-08-06 00:00:00,
2013-08-05 18:24:00,91.0,33.0,-100.00,WSW,246,9.0,11.0,13,0.00,,,0.00,,2013-08-06 00:24:00,
2013-08-05 18:34:00,91.0,33.0,-100.00,WSW,246,9.0,11.0,13,0.00,,,0.00,,2013-08-06 00:34:00,
2013-08-05 18:57:00,91.0,32.0,-100.00,West,265,13.0,18.0,12,0.00,,,0.00,,2013-08-06 00:57:00,
2013-08-05 19:05:00,91.0,32.0,-100.00,West,265,13.0,18.0,12,0.00,,,0.00,,2013-08-06 01:05:00,
2013-08-05 19:13:00,91.0,32.0,-100.00,West,265,13.0,18.0,12,0.00,,,0.00,,2013-08-06 01:13:00,
2013-08-05 19:24:00,90.0,30.0,-100.00,WSW,256,14.0,17.0,12,0.00,,,0.00,,2013-08-06 01:24:00,
2013-08-05 19:35:00,90.0,30.0,-100.00,WSW,256,14.0,17.0,12,0.00,,,0.00,,2013-08-06 01:35:00,
2013-08-05 19:45:00,87.0,31.0,-100.00,WSW,254,11.0,13.0,14,0.00,,,0.00,,2013-08-06 01:45:00,
2013-08-05 19:59:00,87.0,31.0,-100.00,WSW,254,11.0,13.0,14,0.00,,,0.00,,2013-08-06 01:59:00,
2013-08-05 20:05:00,87.0,31.0,-100.00,WSW,254,11.0,13.0,14,0.00,,,0.00,,2013-08-06 02:05:00,
2013-08-05 20:13:00,87.0,31.0,-100.00,WSW,254,11.0,13.0,14,0.00,,,0.00,,2013-08-06 02:13:00,
2013-08-05 20:32:00,83.0,34.0,-100.00,WSW,241,12.0,15.0,17,0.00,,,0.00,,2013-08-06 02:32:00,
2013-08-05 20:52:00,81.0,33.0,-100.00,WSW,239,11.0,13.0,17,0.00,,,0.00,,2013-08-06 02:52:00,
2013-08-05 21:01:00,81.0,33.0,-100.00,WSW,239,11.0,13.0,17,0.00,,,0.00,,2013-08-06 03:01:00,
2013-08-05 23:32:00,67.0,34.0,-100.00,SW,229,10.0,11.0,29,0.00,,,0.00,,2013-08-06 05:32:00,